Time;durP1;ratioP1;P1;durP2;ratioP2;P2;SDS_P1;SDS_P2;PMS_P1;PMS_P2;Temp;Humidity;BMP_temperature;BMP_pressure;BME280_temperature;BME280_humidity;BME280_pressure;Samples;Min_cycle;Max_cycle;Signal;HPM_P1;HPM_P2
2022/07/09 00:01:50;;;;;;;3.40;2.30;;;;;;;;;;5045928;28;20475;-69
2022/07/09 00:04:15;;;;;;;4.80;2.67;;;;;;;;;;5042293;28;20025;-69
2022/07/09 00:06:41;;;;;;;3.85;2.30;;;;;;;;;;5045742;28;20036;-69
2022/07/09 00:09:06;;;;;;;4.85;2.72;;;;;;;;;;5048065;28;20090;-69
2022/07/09 00:11:31;;;;;;;3.13;2.25;;;;;;;;;;5047259;28;20029;-69
2022/07/09 00:13:57;;;;;;;3.42;2.13;;;;;;;;;;5050641;28;20020;-69
2022/07/09 00:16:22;;;;;;;3.85;2.63;;;;;;;;;;5048903;28;20037;-69
2022/07/09 00:18:47;;;;;;;3.22;2.20;;;;;;;;;;5030162;28;20029;-69
2022/07/09 00:21:13;;;;;;;3.42;2.38;;;;;;;;;;5027171;28;20192;-69
2022/07/09 00:23:38;;;;;;;2.67;2.22;;;;;;;;;;5043289;28;20673;-69
2022/07/09 00:26:04;;;;;;;3.38;2.30;;;;;;;;;;5052280;28;20048;-69
2022/07/09 00:28:29;;;;;;;4.82;2.60;;;;;;;;;;5045369;28;20532;-69
2022/07/09 00:30:54;;;;;;;2.63;2.20;;;;;;;;;;5046838;28;20033;-69
2022/07/09 00:33:20;;;;;;;3.20;2.35;;;;;;;;;;5048112;28;20094;-69
2022/07/09 00:35:45;;;;;;;3.80;2.33;;;;;;;;;;5040781;28;20424;-69
2022/07/09 00:38:10;;;;;;;3.58;1.98;;;;;;;;;;5043050;28;20028;-69
2022/07/09 00:40:36;;;;;;;3.38;1.92;;;;;;;;;;5045283;28;20021;-69
2022/07/09 00:43:01;;;;;;;3.03;2.00;;;;;;;;;;5044328;28;20895;-69
2022/07/09 00:45:27;;;;;;;2.40;1.98;;;;;;;;;;5042654;28;20029;-69
2022/07/09 00:47:52;;;;;;;2.08;1.77;;;;;;;;;;5047012;28;20030;-69
2022/07/09 00:50:18;;;;;;;2.53;1.88;;;;;;;;;;5042049;28;20017;-69
2022/07/09 00:52:44;;;;;;;3.20;2.20;;;;;;;;;;5033551;28;20025;-69
2022/07/09 00:55:11;;;;;;;3.33;2.08;;;;;;;;;;5047470;28;20078;-69
2022/07/09 00:57:38;;;;;;;4.80;2.30;;;;;;;;;;5034914;28;20540;-69
2022/07/09 01:00:04;;;;;;;3.03;2.40;;;;;;;;;;5027484;28;20045;-69
2022/07/09 01:02:29;;;;;;;3.33;2.22;;;;;;;;;;5034125;28;20133;-69
2022/07/09 01:04:55;;;;;;;4.55;2.30;;;;;;;;;;5035823;28;20108;-69
2022/07/09 01:07:20;;;;;;;6.82;2.47;;;;;;;;;;5037324;28;20500;-69
2022/07/09 01:09:45;;;;;;;3.58;2.45;;;;;;;;;;5039039;28;20503;-69
2022/07/09 01:12:11;;;;;;;3.42;2.40;;;;;;;;;;5035400;28;20051;-69
2022/07/09 01:14:36;;;;;;;3.22;2.38;;;;;;;;;;5045974;28;20029;-69
2022/07/09 01:17:04;;;;;;;3.78;2.17;;;;;;;;;;5035643;28;20689;-69
2022/07/09 01:19:31;;;;;;;3.50;2.38;;;;;;;;;;5035481;28;20047;-69
2022/07/09 01:21:56;;;;;;;2.67;1.73;;;;;;;;;;5047309;28;20124;-69
2022/07/09 01:24:23;;;;;;;4.43;2.17;;;;;;;;;;5036987;28;20129;-69
2022/07/09 01:26:49;;;;;;;2.45;1.77;;;;;;;;;;5027788;28;20036;-69
2022/07/09 01:29:14;;;;;;;2.47;2.00;;;;;;;;;;5027545;28;20026;-69
2022/07/09 01:31:40;;;;;;;3.22;2.00;;;;;;;;;;5029615;28;20025;-69
2022/07/09 01:34:05;;;;;;;4.40;2.03;;;;;;;;;;5040513;28;20036;-69
2022/07/09 01:36:30;;;;;;;4.03;2.20;;;;;;;;;;5041622;28;20029;-68
2022/07/09 01:38:56;;;;;;;4.35;2.40;;;;;;;;;;5044928;28;20048;-69
2022/07/09 01:41:21;;;;;;;3.28;2.30;;;;;;;;;;5045464;28;20113;-69
2022/07/09 01:43:46;;;;;;;3.60;2.20;;;;;;;;;;5044814;28;20116;-68
2022/07/09 01:46:12;;;;;;;3.67;2.30;;;;;;;;;;5050166;28;20037;-69
2022/07/09 01:48:38;;;;;;;3.22;1.98;;;;;;;;;;5049149;28;20459;-69
2022/07/09 01:51:04;;;;;;;2.83;2.20;;;;;;;;;;5050571;28;20542;-69
2022/07/09 01:53:29;;;;;;;2.35;1.80;;;;;;;;;;5046202;28;20033;-69
2022/07/09 01:55:55;;;;;;;2.58;1.90;;;;;;;;;;5048686;28;20029;-69
2022/07/09 01:58:20;;;;;;;3.05;2.33;;;;;;;;;;5049000;28;20090;-68
2022/07/09 02:00:45;;;;;;;3.22;2.20;;;;;;;;;;5050452;28;20087;-69
2022/07/09 02:03:11;;;;;;;3.70;2.13;;;;;;;;;;5048895;28;20045;-69
2022/07/09 02:05:36;;;;;;;2.75;2.10;;;;;;;;;;5049181;28;20459;-69
2022/07/09 02:08:02;;;;;;;3.90;2.03;;;;;;;;;;5049572;28;20025;-69
2022/07/09 02:10:27;;;;;;;2.78;1.98;;;;;;;;;;5045292;28;20029;-69
2022/07/09 02:12:53;;;;;;;3.13;2.10;;;;;;;;;;5044719;28;20037;-69
2022/07/09 02:15:19;;;;;;;7.10;2.55;;;;;;;;;;5043409;28;20095;-69
2022/07/09 02:17:44;;;;;;;3.28;2.40;;;;;;;;;;5047439;28;20046;-69
2022/07/09 02:20:09;;;;;;;4.45;2.10;;;;;;;;;;5047469;28;20040;-69
2022/07/09 02:22:35;;;;;;;5.45;2.15;;;;;;;;;;5030503;28;20071;-69
2022/07/09 02:25:00;;;;;;;5.40;2.47;;;;;;;;;;5039757;28;20041;-69
2022/07/09 02:27:26;;;;;;;2.30;2.03;;;;;;;;;;5045314;28;20504;-68
2022/07/09 02:29:51;;;;;;;3.53;2.03;;;;;;;;;;5035338;28;20491;-69
2022/07/09 02:32:16;;;;;;;4.65;2.42;;;;;;;;;;5029511;28;20025;-69
2022/07/09 02:34:42;;;;;;;5.20;2.40;;;;;;;;;;5030588;28;20031;-69
2022/07/09 02:37:08;;;;;;;2.83;2.03;;;;;;;;;;5036663;28;20067;-69
2022/07/09 02:39:34;;;;;;;5.22;2.30;;;;;;;;;;5041928;28;20045;-69
2022/07/09 02:41:59;;;;;;;3.67;2.20;;;;;;;;;;5047064;28;20044;-69
2022/07/09 02:44:25;;;;;;;4.35;2.33;;;;;;;;;;5046108;28;20036;-68
2022/07/09 02:46:50;;;;;;;3.65;2.00;;;;;;;;;;5043925;28;20025;-69
2022/07/09 02:49:15;;;;;;;2.97;2.30;;;;;;;;;;5048472;28;20036;-69
2022/07/09 02:51:41;;;;;;;3.78;2.10;;;;;;;;;;5046896;28;20041;-68
2022/07/09 02:54:07;;;;;;;3.05;2.20;;;;;;;;;;5042438;28;20524;-68
2022/07/09 02:56:32;;;;;;;2.40;2.08;;;;;;;;;;5048752;28;20041;-69
2022/07/09 02:58:58;;;;;;;2.83;2.13;;;;;;;;;;5050009;28;20118;-69
2022/07/09 03:01:23;;;;;;;3.92;2.28;;;;;;;;;;5047619;28;20039;-68
2022/07/09 03:03:49;;;;;;;3.22;2.20;;;;;;;;;;5044192;28;20064;-69
2022/07/09 03:06:14;;;;;;;3.60;2.17;;;;;;;;;;5048141;28;20036;-69
2022/07/09 03:08:40;;;;;;;2.45;2.00;;;;;;;;;;5028539;28;20037;-68
2022/07/09 03:11:09;;;;;;;2.90;2.15;;;;;;;;;;5031811;28;20160;-69
2022/07/09 03:13:36;;;;;;;7.20;2.28;;;;;;;;;;5041841;28;20550;-69
2022/07/09 03:16:04;;;;;;;3.22;2.10;;;;;;;;;;5042087;28;20049;-68
2022/07/09 03:18:30;;;;;;;3.35;2.20;;;;;;;;;;5029822;28;20041;-69
2022/07/09 03:20:55;;;;;;;3.22;2.30;;;;;;;;;;5046982;28;20649;-69
2022/07/09 03:23:21;;;;;;;3.33;2.20;;;;;;;;;;5049317;28;20475;-69
2022/07/09 03:25:46;;;;;;;2.42;1.95;;;;;;;;;;5048085;28;20472;-69
2022/07/09 03:28:12;;;;;;;4.03;2.28;;;;;;;;;;5039418;28;20057;-69
2022/07/09 03:30:37;;;;;;;3.75;2.22;;;;;;;;;;5046204;28;20056;-68
2022/07/09 03:33:03;;;;;;;5.03;2.60;;;;;;;;;;5040485;28;20567;-69
2022/07/09 03:35:29;;;;;;;3.58;2.60;;;;;;;;;;5043937;28;20036;-69
2022/07/09 03:37:54;;;;;;;2.92;2.22;;;;;;;;;;5036889;28;20021;-68
2022/07/09 03:40:20;;;;;;;3.47;2.70;;;;;;;;;;5032639;28;20083;-68
2022/07/09 03:42:45;;;;;;;3.30;2.50;;;;;;;;;;5029047;28;20099;-68
2022/07/09 03:45:10;;;;;;;6.53;2.60;;;;;;;;;;5044599;28;20056;-69
2022/07/09 03:47:36;;;;;;;7.65;2.60;;;;;;;;;;5046689;28;20036;-69
2022/07/09 03:50:01;;;;;;;5.25;2.90;;;;;;;;;;5046979;28;20203;-69
2022/07/09 03:52:26;;;;;;;4.50;2.58;;;;;;;;;;5048016;28;20037;-68
2022/07/09 03:54:52;;;;;;;4.90;2.53;;;;;;;;;;5042842;28;20135;-69
2022/07/09 03:57:17;;;;;;;3.65;2.60;;;;;;;;;;5048803;28;20037;-69
2022/07/09 03:59:43;;;;;;;4.28;2.80;;;;;;;;;;5053206;28;20589;-69
2022/07/09 04:02:09;;;;;;;3.83;3.17;;;;;;;;;;5047831;28;20025;-68
2022/07/09 04:04:34;;;;;;;7.32;2.90;;;;;;;;;;5038390;28;20500;-69
2022/07/09 04:06:59;;;;;;;6.28;2.90;;;;;;;;;;5036847;28;20087;-69
2022/07/09 04:09:25;;;;;;;5.22;2.30;;;;;;;;;;5043495;28;20458;-69
2022/07/09 04:11:50;;;;;;;6.35;2.97;;;;;;;;;;5045655;28;20037;-69
2022/07/09 04:14:16;;;;;;;6.35;3.20;;;;;;;;;;5043941;28;20103;-69
2022/07/09 04:16:41;;;;;;;3.90;2.88;;;;;;;;;;5039170;28;20226;-69
2022/07/09 04:19:07;;;;;;;5.68;3.13;;;;;;;;;;5031310;28;20515;-69
2022/07/09 04:21:33;;;;;;;7.20;3.22;;;;;;;;;;5032755;28;20041;-69
2022/07/09 04:23:58;;;;;;;10.65;3.38;;;;;;;;;;5028060;28;20084;-69
2022/07/09 04:26:24;;;;;;;6.35;2.60;;;;;;;;;;5037251;28;20017;-69
2022/07/09 04:28:49;;;;;;;5.13;3.40;;;;;;;;;;5037907;28;20025;-69
2022/07/09 04:31:15;;;;;;;4.50;3.00;;;;;;;;;;5047132;28;20041;-69
2022/07/09 04:33:42;;;;;;;7.35;3.50;;;;;;;;;;5042193;28;20040;-69
2022/07/09 04:36:08;;;;;;;9.10;3.10;;;;;;;;;;5040257;28;20464;-69
2022/07/09 04:38:33;;;;;;;4.43;3.17;;;;;;;;;;5042814;28;20041;-69
2022/07/09 04:40:58;;;;;;;8.13;3.15;;;;;;;;;;5043944;28;20027;-69
2022/07/09 04:43:24;;;;;;;6.15;3.80;;;;;;;;;;5042671;28;20072;-69
2022/07/09 04:45:50;;;;;;;6.05;4.20;;;;;;;;;;5039656;28;20052;-68
2022/07/09 04:48:15;;;;;;;6.03;3.45;;;;;;;;;;5049567;28;20094;-68
2022/07/09 04:50:41;;;;;;;6.13;3.75;;;;;;;;;;5044280;28;20504;-69
2022/07/09 04:53:06;;;;;;;7.13;3.97;;;;;;;;;;5041700;28;20132;-69
2022/07/09 04:55:31;;;;;;;7.53;4.07;;;;;;;;;;5044400;28;20099;-68
2022/07/09 04:57:57;;;;;;;8.13;3.03;;;;;;;;;;5046013;28;20041;-68
2022/07/09 05:00:22;;;;;;;5.50;3.15;;;;;;;;;;5042494;28;20045;-69
2022/07/09 05:02:48;;;;;;;7.90;3.83;;;;;;;;;;5041037;28;20045;-68
2022/07/09 05:05:13;;;;;;;8.80;3.47;;;;;;;;;;5041879;28;20147;-69
2022/07/09 05:07:40;;;;;;;7.70;3.65;;;;;;;;;;5047216;28;20079;-69
2022/07/09 05:10:06;;;;;;;11.35;3.97;;;;;;;;;;5047906;28;20080;-69
2022/07/09 05:12:31;;;;;;;5.38;3.47;;;;;;;;;;5044970;28;20040;-69
2022/07/09 05:14:57;;;;;;;9.77;3.78;;;;;;;;;;5047220;28;20462;-68
2022/07/09 05:17:23;;;;;;;5.93;3.55;;;;;;;;;;5042580;28;20499;-68
2022/07/09 05:19:49;;;;;;;6.43;3.72;;;;;;;;;;5044308;28;20059;-68
2022/07/09 05:22:14;;;;;;;5.10;3.63;;;;;;;;;;5046771;28;20078;-68
2022/07/09 05:24:40;;;;;;;4.43;3.28;;;;;;;;;;5044312;28;20048;-69
2022/07/09 05:27:06;;;;;;;4.45;3.30;;;;;;;;;;5041959;28;20546;-68
2022/07/09 05:29:32;;;;;;;6.80;3.70;;;;;;;;;;5048585;28;20048;-68
2022/07/09 05:31:58;;;;;;;8.18;4.10;;;;;;;;;;5052113;28;20025;-69
2022/07/09 05:34:24;;;;;;;6.88;3.65;;;;;;;;;;5049873;28;20045;-69
2022/07/09 05:36:51;;;;;;;7.57;3.97;;;;;;;;;;5053074;28;20043;-69
2022/07/09 05:39:17;;;;;;;8.25;5.03;;;;;;;;;;5047116;28;20041;-69
2022/07/09 05:41:42;;;;;;;9.18;4.80;;;;;;;;;;5041754;28;20464;-69
2022/07/09 05:44:07;;;;;;;9.02;4.57;;;;;;;;;;5047385;28;20390;-69
2022/07/09 05:46:33;;;;;;;7.50;4.50;;;;;;;;;;5045531;28;20037;-69
2022/07/09 05:48:58;;;;;;;8.35;5.00;;;;;;;;;;5047520;28;20040;-69
2022/07/09 05:51:23;;;;;;;9.02;4.57;;;;;;;;;;5048421;28;20057;-69
2022/07/09 05:53:49;;;;;;;7.97;4.78;;;;;;;;;;5051383;28;20071;-69
2022/07/09 05:56:14;;;;;;;7.55;5.28;;;;;;;;;;5050766;28;20476;-69
2022/07/09 05:58:39;;;;;;;8.18;4.82;;;;;;;;;;5051114;28;20476;-69
2022/07/09 06:01:06;;;;;;;10.43;4.70;;;;;;;;;;5050123;28;20174;-69
2022/07/09 06:03:31;;;;;;;9.68;5.68;;;;;;;;;;5044180;28;20585;-69
2022/07/09 06:05:56;;;;;;;8.27;5.10;;;;;;;;;;5046824;28;20033;-69
2022/07/09 06:08:23;;;;;;;10.23;5.68;;;;;;;;;;5039392;28;20033;-69
2022/07/09 06:10:48;;;;;;;11.23;5.70;;;;;;;;;;5045861;28;20522;-69
2022/07/09 06:13:14;;;;;;;8.82;5.05;;;;;;;;;;5049919;28;20041;-68
2022/07/09 06:15:39;;;;;;;8.05;5.03;;;;;;;;;;5046863;28;20043;-68
2022/07/09 06:18:05;;;;;;;9.15;5.75;;;;;;;;;;5049192;28;20475;-68
2022/07/09 06:20:31;;;;;;;8.77;5.30;;;;;;;;;;5048983;28;20029;-68
2022/07/09 06:22:56;;;;;;;9.68;6.15;;;;;;;;;;5049748;28;20013;-69
2022/07/09 06:25:21;;;;;;;11.48;6.30;;;;;;;;;;5046320;28;20067;-69
2022/07/09 06:27:47;;;;;;;10.77;6.70;;;;;;;;;;5049549;28;20041;-69
2022/07/09 06:30:12;;;;;;;14.43;6.95;;;;;;;;;;5049379;28;20065;-69
2022/07/09 06:32:38;;;;;;;12.68;7.65;;;;;;;;;;5044656;28;20052;-69
2022/07/09 06:35:03;;;;;;;15.50;7.00;;;;;;;;;;5043442;28;20020;-69
2022/07/09 06:37:29;;;;;;;9.93;6.35;;;;;;;;;;5044610;28;20136;-69
2022/07/09 06:39:56;;;;;;;12.48;6.78;;;;;;;;;;5043028;28;20064;-69
2022/07/09 06:42:22;;;;;;;15.25;8.40;;;;;;;;;;5042615;28;20044;-68
2022/07/09 06:44:47;;;;;;;14.25;8.35;;;;;;;;;;5051421;28;20048;-69
2022/07/09 06:47:12;;;;;;;10.48;7.43;;;;;;;;;;5049946;28;20404;-69
2022/07/09 06:49:38;;;;;;;10.13;6.88;;;;;;;;;;5064489;28;20043;-69
2022/07/09 06:52:05;;;;;;;9.98;6.78;;;;;;;;;;5044731;28;20040;-69
2022/07/09 06:54:30;;;;;;;11.02;6.72;;;;;;;;;;5055302;28;20506;-69
2022/07/09 06:56:58;;;;;;;8.65;6.30;;;;;;;;;;5054825;28;20025;-69
2022/07/09 06:59:24;;;;;;;10.32;7.03;;;;;;;;;;5032360;28;20522;-69
2022/07/09 07:01:50;;;;;;;10.57;7.50;;;;;;;;;;5027699;28;20065;-69
2022/07/09 07:04:15;;;;;;;18.55;8.32;;;;;;;;;;5028531;28;20136;-69
2022/07/09 07:06:41;;;;;;;12.93;7.85;;;;;;;;;;5032915;28;20496;-69
2022/07/09 07:09:07;;;;;;;12.43;8.05;;;;;;;;;;5013275;28;20421;-69
2022/07/09 07:11:32;;;;;;;16.40;8.15;;;;;;;;;;5030346;28;20541;-67
2022/07/09 07:13:58;;;;;;;16.48;9.30;;;;;;;;;;5031584;28;20060;-70
2022/07/09 07:16:23;;;;;;;19.25;9.63;;;;;;;;;;5021470;28;20077;-69
2022/07/09 07:18:49;;;;;;;11.95;8.02;;;;;;;;;;5030885;28;20026;-68
2022/07/09 07:21:14;;;;;;;13.13;8.82;;;;;;;;;;5010291;28;20037;-68
2022/07/09 07:23:39;;;;;;;9.55;6.68;;;;;;;;;;5015331;28;20459;-69
2022/07/09 07:26:05;;;;;;;9.10;5.78;;;;;;;;;;5030216;28;20055;-70
2022/07/09 07:28:30;;;;;;;7.30;5.50;;;;;;;;;;5041592;28;20777;-70
2022/07/09 07:30:56;;;;;;;9.30;6.18;;;;;;;;;;5031740;28;20712;-68
2022/07/09 07:33:22;;;;;;;9.63;5.68;;;;;;;;;;5025745;28;20469;-67
2022/07/09 07:35:47;;;;;;;6.35;4.63;;;;;;;;;;5028436;28;20049;-69
2022/07/09 07:38:12;;;;;;;7.65;5.20;;;;;;;;;;5025805;28;20109;-66
2022/07/09 07:40:38;;;;;;;5.68;4.68;;;;;;;;;;5014709;28;20049;-67
2022/07/09 07:43:03;;;;;;;7.47;4.90;;;;;;;;;;5038161;28;20036;-69
2022/07/09 07:45:29;;;;;;;5.97;4.20;;;;;;;;;;5045849;28;20078;-70
2022/07/09 07:47:54;;;;;;;7.85;4.57;;;;;;;;;;5047544;28;20056;-70
2022/07/09 07:50:21;;;;;;;6.07;4.40;;;;;;;;;;5037463;28;20077;-69
2022/07/09 07:52:46;;;;;;;5.45;4.10;;;;;;;;;;5042919;28;20045;-69
2022/07/09 07:55:11;;;;;;;9.02;4.22;;;;;;;;;;5040279;28;20032;-69
2022/07/09 07:57:37;;;;;;;4.78;3.80;;;;;;;;;;5030786;28;20536;-69
2022/07/09 08:00:04;;;;;;;5.95;4.03;;;;;;;;;;5017991;28;20044;-73
2022/07/09 08:02:30;;;;;;;6.25;4.32;;;;;;;;;;5032711;28;20032;-71
2022/07/09 08:04:55;;;;;;;6.45;3.55;;;;;;;;;;5026175;22;20042;-84
2022/07/09 08:07:20;;;;;;;7.75;3.88;;;;;;;;;;4980358;28;20022;-84
2022/07/09 08:09:46;;;;;;;11.73;4.00;;;;;;;;;;4977740;28;20552;-82
2022/07/09 08:12:11;;;;;;;8.02;4.63;;;;;;;;;;4982705;28;20022;-83
2022/07/09 08:14:36;;;;;;;5.78;4.20;;;;;;;;;;4982359;28;20026;-83
2022/07/09 08:17:02;;;;;;;6.70;4.32;;;;;;;;;;4983844;28;20030;-84
2022/07/09 08:19:27;;;;;;;6.47;4.50;;;;;;;;;;4982066;28;20034;-83
2022/07/09 08:21:53;;;;;;;6.93;4.80;;;;;;;;;;4985951;28;20286;-84
2022/07/09 08:24:18;;;;;;;7.72;4.95;;;;;;;;;;4985429;28;20037;-82
2022/07/09 08:26:43;;;;;;;8.70;5.35;;;;;;;;;;4987160;28;20085;-84
2022/07/09 08:29:08;;;;;;;10.40;5.47;;;;;;;;;;4984948;28;20037;-84
2022/07/09 08:31:34;;;;;;;11.50;5.78;;;;;;;;;;4982416;28;20033;-83
2022/07/09 08:33:59;;;;;;;8.77;4.88;;;;;;;;;;4986398;28;20030;-84
2022/07/09 08:36:25;;;;;;;7.15;4.95;;;;;;;;;;4985057;28;20030;-84
2022/07/09 08:38:50;;;;;;;7.03;4.65;;;;;;;;;;4983623;28;20030;-83
2022/07/09 08:41:19;;;;;;;6.45;4.72;;;;;;;;;;4980995;28;20799;-82
2022/07/09 08:43:49;;;;;;;10.88;5.32;;;;;;;;;;4984101;28;20528;-83
2022/07/09 08:46:15;;;;;;;8.77;5.88;;;;;;;;;;4978812;28;20585;-84
2022/07/09 08:48:43;;;;;;;9.75;6.55;;;;;;;;;;4989499;28;20076;-82
2022/07/09 08:51:09;;;;;;;8.13;5.50;;;;;;;;;;4992865;28;20026;-81
2022/07/09 08:53:40;;;;;;;8.48;5.93;;;;;;;;;;4995535;28;20038;-83
2022/07/09 08:56:05;;;;;;;10.50;6.93;;;;;;;;;;4995661;28;20555;-82
2022/07/09 08:58:31;;;;;;;7.85;6.30;;;;;;;;;;4994596;28;20026;-83
2022/07/09 09:00:58;;;;;;;11.13;6.00;;;;;;;;;;4994649;28;20030;-83
2022/07/09 09:03:23;;;;;;;9.77;6.70;;;;;;;;;;4993069;28;20111;-84
2022/07/09 09:06:02;;;;;;;10.25;6.30;;;;;;;;;;4994441;28;20413;-84
2022/07/09 09:08:27;;;;;;;12.38;7.82;;;;;;;;;;4981284;28;20026;-83
2022/07/09 09:10:52;;;;;;;8.68;6.35;;;;;;;;;;4975995;28;20383;-85
2022/07/09 09:13:18;;;;;;;13.98;8.27;;;;;;;;;;5007795;28;20290;-83
2022/07/09 09:15:43;;;;;;;13.50;8.63;;;;;;;;;;4994170;28;20124;-82
2022/07/09 09:18:09;;;;;;;13.02;8.82;;;;;;;;;;4991293;28;20030;-83
2022/07/09 09:20:35;;;;;;;12.38;7.93;;;;;;;;;;4989760;28;20030;-82
2022/07/09 09:23:02;;;;;;;11.73;7.32;;;;;;;;;;4989643;28;20045;-82
2022/07/09 09:25:28;;;;;;;10.82;6.60;;;;;;;;;;4989652;28;20069;-89
2022/07/09 09:27:58;;;;;;;12.13;6.85;;;;;;;;;;4983506;28;20033;-84
2022/07/09 09:30:25;;;;;;;7.57;5.72;;;;;;;;;;4978282;28;20033;-82
2022/07/09 09:32:57;;;;;;;10.63;6.43;;;;;;;;;;4979756;28;20097;-83
2022/07/09 09:35:41;;;;;;;15.85;8.50;;;;;;;;;;4990314;28;20125;-84
2022/07/09 09:38:07;;;;;;;12.57;8.38;;;;;;;;;;4982578;28;20383;-82
2022/07/09 09:40:32;;;;;;;13.88;7.30;;;;;;;;;;5000244;28;20552;-85
2022/07/09 09:43:01;;;;;;;14.77;7.97;;;;;;;;;;4988688;28;20533;-85
2022/07/09 09:45:27;;;;;;;11.65;6.47;;;;;;;;;;4989199;28;20400;-83
2022/07/09 09:47:53;;;;;;;10.57;7.47;;;;;;;;;;4989027;28;20497;-83
2022/07/09 09:50:24;;;;;;;11.48;6.72;;;;;;;;;;4993356;28;20029;-84
2022/07/09 09:52:54;;;;;;;18.20;8.48;;;;;;;;;;4987764;28;20026;-83
2022/07/09 09:55:21;;;;;;;13.75;7.03;;;;;;;;;;4988165;28;20030;-84
2022/07/09 09:57:48;;;;;;;13.35;8.70;;;;;;;;;;4984529;28;20034;-83
2022/07/09 10:00:14;;;;;;;15.07;8.63;;;;;;;;;;4986304;28;20593;-84
2022/07/09 10:02:44;;;;;;;17.73;11.07;;;;;;;;;;4981519;28;20666;-83
2022/07/09 10:05:09;;;;;;;16.38;9.43;;;;;;;;;;4972526;28;20073;-84
2022/07/09 10:07:35;;;;;;;13.95;9.05;;;;;;;;;;4978446;28;20292;-90
2022/07/09 10:10:00;;;;;;;20.10;12.75;;;;;;;;;;4988614;28;20030;-83
2022/07/09 10:12:30;;;;;;;22.95;14.07;;;;;;;;;;4990481;28;20057;-88
2022/07/09 10:14:56;;;;;;;21.77;14.07;;;;;;;;;;4989102;28;20030;-87
2022/07/09 10:17:24;;;;;;;22.90;13.48;;;;;;;;;;4984106;28;20038;-85
2022/07/09 10:19:54;;;;;;;21.35;13.80;;;;;;;;;;4988846;28;20034;-85
2022/07/09 10:22:20;;;;;;;22.30;13.38;;;;;;;;;;4983091;28;20030;-85
2022/07/09 10:24:48;;;;;;;23.15;14.10;;;;;;;;;;4991782;28;20057;-82
2022/07/09 10:27:14;;;;;;;24.88;15.38;;;;;;;;;;4987145;28;20060;-86
2022/07/09 10:29:59;;;;;;;20.83;14.93;;;;;;;;;;4976992;28;20122;-86
2022/07/09 10:32:30;;;;;;;18.73;12.77;;;;;;;;;;4988735;28;20049;-84
2022/07/09 10:35:03;;;;;;;18.85;12.50;;;;;;;;;;4987900;28;20042;-83
2022/07/09 10:37:35;;;;;;;;;;;;;;;;;;4986702;28;20093;-85
2022/07/09 10:40:09;;;;;;;23.88;14.10;;;;;;;;;;4981042;28;19914;-86
2022/07/09 10:42:34;;;;;;;20.02;13.25;;;;;;;;;;4980704;28;20044;-84
2022/07/09 10:44:59;;;;;;;20.80;12.73;;;;;;;;;;4984494;28;20026;-83
2022/07/09 10:47:36;;;;;;;15.07;9.88;;;;;;;;;;4987326;28;20026;-86
2022/07/09 10:50:04;;;;;;;16.45;11.02;;;;;;;;;;4982716;28;20030;-85
2022/07/09 10:52:30;;;;;;;16.45;9.10;;;;;;;;;;4983619;28;20041;-87
2022/07/09 10:54:55;;;;;;;19.13;11.13;;;;;;;;;;4983786;28;20585;-87
2022/07/09 10:57:21;;;;;;;19.80;11.15;;;;;;;;;;4987807;28;20473;-85
2022/07/09 10:59:46;;;;;;;18.23;10.82;;;;;;;;;;4989023;28;20034;-87
2022/07/09 11:02:22;;;;;;;18.30;10.57;;;;;;;;;;4988103;28;20034;-85
2022/07/09 11:04:52;;;;;;;18.70;12.43;;;;;;;;;;5010217;28;20046;-85
2022/07/09 11:07:24;;;;;;;19.83;11.85;;;;;;;;;;5008890;28;20028;-84
2022/07/09 11:09:51;;;;;;;17.60;10.13;;;;;;;;;;4986154;28;20524;-85
2022/07/09 11:12:18;;;;;;;16.60;10.52;;;;;;;;;;4983546;28;20086;-84
2022/07/09 11:14:45;;;;;;;16.38;9.45;;;;;;;;;;4985242;28;20030;-85
2022/07/09 11:17:14;;;;;;;13.23;8.10;;;;;;;;;;4988412;28;20085;-86
2022/07/09 11:19:39;;;;;;;7.63;5.60;;;;;;;;;;4990671;28;20034;-87
2022/07/09 11:22:05;;;;;;;7.20;4.88;;;;;;;;;;4989146;28;20041;-88
2022/07/09 11:24:31;;;;;;;10.52;5.00;;;;;;;;;;4987531;28;20026;-86
2022/07/09 11:27:02;;;;;;;8.57;5.70;;;;;;;;;;4989309;28;20089;-93
2022/07/09 11:29:27;;;;;;;7.68;4.47;;;;;;;;;;4988842;28;20061;-94
2022/07/09 11:31:53;;;;;;;9.32;5.20;;;;;;;;;;4988860;28;20516;-91
2022/07/09 11:34:19;;;;;;;9.13;4.18;;;;;;;;;;4970786;28;20398;-91
2022/07/09 11:36:47;;;;;;;3.83;2.60;;;;;;;;;;4970318;28;20133;-92
2022/07/09 11:39:28;;;;;;;4.53;3.33;;;;;;;;;;4976452;28;20707;-91
2022/07/09 11:41:55;;;;;;;6.80;3.67;;;;;;;;;;4976710;28;20035;-90
2022/07/09 11:44:25;;;;;;;5.20;2.70;;;;;;;;;;4987570;28;20045;-94
2022/07/09 11:47:11;;;;;;;2.78;2.35;;;;;;;;;;4992778;28;20881;-92
2022/07/09 11:49:43;;;;;;;2.97;2.10;;;;;;;;;;4987452;28;20045;-88
2022/07/09 11:52:20;;;;;;;3.05;2.17;;;;;;;;;;4988833;28;20030;-94
2022/07/09 11:55:00;;;;;;;2.22;1.98;;;;;;;;;;4987372;28;20035;-88
2022/07/09 11:57:26;;;;;;;4.55;2.00;;;;;;;;;;4989003;28;20973;-91
2022/07/09 11:59:52;;;;;;;4.65;1.90;;;;;;;;;;4987323;28;20110;-88
2022/07/09 12:02:25;;;;;;;1.60;1.45;;;;;;;;;;4990216;28;20053;-89
2022/07/09 12:04:50;;;;;;;2.97;1.73;;;;;;;;;;4989192;28;20050;-86
2022/07/09 12:07:16;;;;;;;2.08;1.40;;;;;;;;;;4989648;28;20567;-91
2022/07/09 12:09:41;;;;;;;3.92;1.55;;;;;;;;;;4992361;28;20022;-88
2022/07/09 12:12:06;;;;;;;1.48;1.30;;;;;;;;;;4980698;28;20142;-91
2022/07/09 12:14:32;;;;;;;1.90;1.60;;;;;;;;;;4967436;28;20058;-85
2022/07/09 12:16:58;;;;;;;2.65;1.33;;;;;;;;;;4972650;28;20030;-85
2022/07/09 12:19:23;;;;;;;1.27;1.17;;;;;;;;;;4983972;28;20049;-89
2022/07/09 12:21:49;;;;;;;2.30;1.17;;;;;;;;;;4986771;28;20723;-87
2022/07/09 12:24:14;;;;;;;1.13;0.93;;;;;;;;;;4987978;28;20422;-90
2022/07/09 12:26:40;;;;;;;2.40;1.05;;;;;;;;;;4981558;28;20030;-84
2022/07/09 12:29:05;;;;;;;2.55;1.27;;;;;;;;;;4990030;28;20022;-87
2022/07/09 12:31:32;;;;;;;3.80;1.35;;;;;;;;;;4975192;28;20514;-89
2022/07/09 12:33:57;;;;;;;3.15;1.20;;;;;;;;;;4974687;28;20050;-92
2022/07/09 12:36:23;;;;;;;1.88;0.90;;;;;;;;;;4978843;28;20048;-93
2022/07/09 12:38:48;;;;;;;1.40;1.10;;;;;;;;;;4981602;28;20519;-89
2022/07/09 12:41:13;;;;;;;1.48;1.00;;;;;;;;;;4970027;28;20046;-90
2022/07/09 12:43:39;;;;;;;1.25;1.00;;;;;;;;;;4957862;28;20205;-90
2022/07/09 12:46:04;;;;;;;2.17;1.02;;;;;;;;;;4963252;28;20296;-85
2022/07/09 12:48:29;;;;;;;2.15;1.00;;;;;;;;;;4972611;28;20129;-89
2022/07/09 12:50:55;;;;;;;1.90;1.30;;;;;;;;;;4974466;28;20034;-89
2022/07/09 12:53:20;;;;;;;1.38;1.10;;;;;;;;;;4997316;28;20054;-91
2022/07/09 12:55:47;;;;;;;1.13;1.02;;;;;;;;;;4981281;28;20069;-92
2022/07/09 12:58:12;;;;;;;1.45;1.05;;;;;;;;;;4985112;28;20039;-87
2022/07/09 13:00:38;;;;;;;3.42;1.00;;;;;;;;;;4983739;28;20061;-87
2022/07/09 13:03:03;;;;;;;1.80;1.10;;;;;;;;;;4977547;28;20026;-88
2022/07/09 13:05:28;;;;;;;3.17;1.05;;;;;;;;;;4977611;28;20389;-85
2022/07/09 13:07:54;;;;;;;1.27;1.15;;;;;;;;;;4976146;28;20137;-89
2022/07/09 13:10:19;;;;;;;1.98;1.23;;;;;;;;;;4978735;28;20046;-89
2022/07/09 13:12:44;;;;;;;1.88;1.10;;;;;;;;;;4981348;28;20070;-89
2022/07/09 13:15:10;;;;;;;2.95;1.38;;;;;;;;;;4985661;28;20034;-88
2022/07/09 13:17:36;;;;;;;3.17;1.20;;;;;;;;;;4979855;28;20070;-92
2022/07/09 13:20:02;;;;;;;1.40;1.10;;;;;;;;;;4980413;28;20076;-89
2022/07/09 13:22:27;;;;;;;1.23;1.00;;;;;;;;;;4973422;28;20418;-87
2022/07/09 13:24:53;;;;;;;1.73;1.02;;;;;;;;;;4978532;28;20042;-88
2022/07/09 13:27:20;;;;;;;1.30;1.17;;;;;;;;;;4980349;28;20112;-87
2022/07/09 13:29:49;;;;;;;3.08;1.10;;;;;;;;;;4974845;28;20023;-88
2022/07/09 13:32:14;;;;;;;1.20;1.00;;;;;;;;;;4976477;28;20042;-89
2022/07/09 13:34:40;;;;;;;2.40;1.05;;;;;;;;;;4982465;28;20072;-85
2022/07/09 13:37:05;;;;;;;3.63;1.17;;;;;;;;;;4986050;28;20046;-89
2022/07/09 13:39:31;;;;;;;2.28;1.10;;;;;;;;;;4986167;28;20034;-86
2022/07/09 13:41:56;;;;;;;1.30;0.90;;;;;;;;;;4983426;28;20370;-88
2022/07/09 13:44:21;;;;;;;2.67;1.08;;;;;;;;;;4981241;28;20070;-91
2022/07/09 13:46:47;;;;;;;1.25;0.90;;;;;;;;;;4979064;28;20650;-87
2022/07/09 13:49:12;;;;;;;1.20;1.10;;;;;;;;;;4983825;28;20034;-84
2022/07/09 13:51:38;;;;;;;1.42;0.90;;;;;;;;;;4984508;28;20038;-84
2022/07/09 13:54:04;;;;;;;2.30;1.10;;;;;;;;;;4988002;28;20117;-86
2022/07/09 13:56:29;;;;;;;3.83;1.15;;;;;;;;;;4981968;28;20034;-89
2022/07/09 13:58:55;;;;;;;2.47;1.10;;;;;;;;;;4983175;28;20094;-85
2022/07/09 14:01:20;;;;;;;2.55;1.10;;;;;;;;;;4984324;28;20042;-84
2022/07/09 14:03:46;;;;;;;1.20;1.05;;;;;;;;;;4981767;28;20101;-84
2022/07/09 14:06:11;;;;;;;1.83;1.20;;;;;;;;;;4980962;28;20026;-89
2022/07/09 14:08:38;;;;;;;2.25;1.20;;;;;;;;;;4982199;28;20043;-90
2022/07/09 14:11:03;;;;;;;2.58;1.20;;;;;;;;;;4983184;28;20038;-85
2022/07/09 14:13:30;;;;;;;1.40;1.08;;;;;;;;;;4983498;28;20108;-93
2022/07/09 14:15:57;;;;;;;2.42;1.27;;;;;;;;;;4984030;28;20056;-86
2022/07/09 14:18:23;;;;;;;1.42;1.10;;;;;;;;;;4979352;28;20070;-84
2022/07/09 14:20:48;;;;;;;1.63;1.20;;;;;;;;;;4983552;28;20620;-85
2022/07/09 14:23:14;;;;;;;2.20;1.10;;;;;;;;;;4980483;28;20038;-84
2022/07/09 14:25:40;;;;;;;1.83;1.30;;;;;;;;;;4981691;28;20049;-85
2022/07/09 14:28:05;;;;;;;2.30;1.15;;;;;;;;;;4976843;28;20472;-85
2022/07/09 14:30:32;;;;;;;1.20;1.10;;;;;;;;;;4980640;28;20022;-86
2022/07/09 14:32:59;;;;;;;1.10;0.95;;;;;;;;;;4982036;28;20062;-84